sensor_id;sensor_type;location;lat;lon;timestamp;pressure;altitude;pressure_sealevel;temperature;humidity
4576;BME280;2300;51.874;8.430;2023-04-24T00:01:03;99274.50;;;10.96;78.13
4576;BME280;2300;51.874;8.430;2023-04-24T00:03:32;99266.50;;;10.84;78.76
4576;BME280;2300;51.874;8.430;2023-04-24T00:05:59;99261.81;;;10.85;79.42
4576;BME280;2300;51.874;8.430;2023-04-24T00:08:27;99256.56;;;10.78;79.80
4576;BME280;2300;51.874;8.430;2023-04-24T00:10:53;99249.72;;;10.81;80.10
4576;BME280;2300;51.874;8.430;2023-04-24T00:13:20;99257.41;;;10.79;80.21
4576;BME280;2300;51.874;8.430;2023-04-24T00:15:46;99251.91;;;10.79;80.55
4576;BME280;2300;51.874;8.430;2023-04-24T00:18:13;99258.22;;;10.74;81.44
4576;BME280;2300;51.874;8.430;2023-04-24T00:20:39;99257.34;;;10.69;82.25
4576;BME280;2300;51.874;8.430;2023-04-24T00:23:06;99259.78;;;10.60;81.89
4576;BME280;2300;51.874;8.430;2023-04-24T00:25:33;99249.13;;;10.69;82.11
4576;BME280;2300;51.874;8.430;2023-04-24T00:28:00;99251.75;;;10.49;83.13
4576;BME280;2300;51.874;8.430;2023-04-24T00:30:27;99257.25;;;10.49;83.24
4576;BME280;2300;51.874;8.430;2023-04-24T00:32:53;99252.28;;;10.40;83.18
4576;BME280;2300;51.874;8.430;2023-04-24T00:35:20;99248.75;;;10.45;83.83
4576;BME280;2300;51.874;8.430;2023-04-24T00:37:46;99242.97;;;10.41;83.67
4576;BME280;2300;51.874;8.430;2023-04-24T00:40:13;99246.53;;;10.47;83.46
4576;BME280;2300;51.874;8.430;2023-04-24T00:42:41;99239.97;;;10.48;83.76
4576;BME280;2300;51.874;8.430;2023-04-24T00:45:09;99239.13;;;10.48;84.21
4576;BME280;2300;51.874;8.430;2023-04-24T00:47:36;99232.06;;;10.57;83.59
4576;BME280;2300;51.874;8.430;2023-04-24T00:50:04;99226.56;;;10.57;83.69
4576;BME280;2300;51.874;8.430;2023-04-24T00:52:31;99230.44;;;10.61;83.95
4576;BME280;2300;51.874;8.430;2023-04-24T00:54:58;99234.25;;;10.55;83.98
4576;BME280;2300;51.874;8.430;2023-04-24T00:57:25;99231.50;;;10.60;83.80
4576;BME280;2300;51.874;8.430;2023-04-24T00:59:54;99229.84;;;10.59;84.52
4576;BME280;2300;51.874;8.430;2023-04-24T01:02:21;99217.22;;;10.58;83.73
4576;BME280;2300;51.874;8.430;2023-04-24T01:04:49;99205.69;;;10.51;83.92
4576;BME280;2300;51.874;8.430;2023-04-24T01:07:18;99228.25;;;10.68;83.25
4576;BME280;2300;51.874;8.430;2023-04-24T01:09:47;99235.44;;;10.79;82.75
4576;BME280;2300;51.874;8.430;2023-04-24T01:12:16;99222.25;;;10.71;82.25
4576;BME280;2300;51.874;8.430;2023-04-24T01:14:42;99224.13;;;10.65;82.28
4576;BME280;2300;51.874;8.430;2023-04-24T01:17:10;99226.56;;;10.57;82.00
4576;BME280;2300;51.874;8.430;2023-04-24T01:19:37;99229.56;;;10.50;82.65
4576;BME280;2300;51.874;8.430;2023-04-24T01:22:09;99225.94;;;10.39;83.45
4576;BME280;2300;51.874;8.430;2023-04-24T01:24:36;99222.56;;;10.27;83.48
4576;BME280;2300;51.874;8.430;2023-04-24T01:27:03;99220.63;;;10.28;83.81
4576;BME280;2300;51.874;8.430;2023-04-24T01:29:29;99213.16;;;10.18;83.71
4576;BME280;2300;51.874;8.430;2023-04-24T01:31:56;99236.47;;;10.16;84.13
4576;BME280;2300;51.874;8.430;2023-04-24T01:34:23;99221.50;;;9.96;84.70
4576;BME280;2300;51.874;8.430;2023-04-24T01:36:50;99237.91;;;9.91;85.04
4576;BME280;2300;51.874;8.430;2023-04-24T01:39:18;99226.44;;;9.94;84.94
4576;BME280;2300;51.874;8.430;2023-04-24T01:41:46;99225.03;;;9.92;84.30
4576;BME280;2300;51.874;8.430;2023-04-24T01:44:12;99217.38;;;9.94;84.23
4576;BME280;2300;51.874;8.430;2023-04-24T01:46:39;99243.22;;;10.03;84.34
4576;BME280;2300;51.874;8.430;2023-04-24T01:49:05;99228.91;;;9.96;84.53
4576;BME280;2300;51.874;8.430;2023-04-24T01:51:32;99225.94;;;10.02;84.04
4576;BME280;2300;51.874;8.430;2023-04-24T01:53:58;99201.34;;;9.76;84.52
4576;BME280;2300;51.874;8.430;2023-04-24T01:56:28;99226.41;;;9.89;84.98
4576;BME280;2300;51.874;8.430;2023-04-24T01:58:56;99173.97;;;9.49;84.53
4576;BME280;2300;51.874;8.430;2023-04-24T02:01:23;99227.38;;;9.73;85.43
4576;BME280;2300;51.874;8.430;2023-04-24T02:03:50;99227.13;;;9.80;85.58
4576;BME280;2300;51.874;8.430;2023-04-24T02:06:17;99201.84;;;9.68;85.13
4576;BME280;2300;51.874;8.430;2023-04-24T02:08:43;99225.50;;;9.79;84.87
4576;BME280;2300;51.874;8.430;2023-04-24T02:11:10;99231.28;;;9.82;84.70
4576;BME280;2300;51.874;8.430;2023-04-24T02:13:38;99211.72;;;9.69;85.54
4576;BME280;2300;51.874;8.430;2023-04-24T02:16:04;99234.88;;;9.88;85.27
4576;BME280;2300;51.874;8.430;2023-04-24T02:18:30;99234.34;;;9.91;84.97
4576;BME280;2300;51.874;8.430;2023-04-24T02:20:57;99232.19;;;9.93;84.91
4576;BME280;2300;51.874;8.430;2023-04-24T02:23:23;99230.25;;;9.93;84.29
4576;BME280;2300;51.874;8.430;2023-04-24T02:25:50;99228.88;;;9.91;84.87
4576;BME280;2300;51.874;8.430;2023-04-24T02:28:18;99222.78;;;9.84;85.04
4576;BME280;2300;51.874;8.430;2023-04-24T02:30:46;99201.19;;;9.55;85.03
4576;BME280;2300;51.874;8.430;2023-04-24T02:33:13;99216.63;;;9.67;85.56
4576;BME280;2300;51.874;8.430;2023-04-24T02:35:39;99219.91;;;9.64;85.67
4576;BME280;2300;51.874;8.430;2023-04-24T02:38:05;99220.28;;;9.45;86.72
4576;BME280;2300;51.874;8.430;2023-04-24T02:40:32;99228.84;;;9.54;86.77
4576;BME280;2300;51.874;8.430;2023-04-24T02:42:58;99226.38;;;9.52;87.14
4576;BME280;2300;51.874;8.430;2023-04-24T02:45:25;99165.25;;;9.20;86.67
4576;BME280;2300;51.874;8.430;2023-04-24T02:47:52;99221.28;;;9.66;86.75
4576;BME280;2300;51.874;8.430;2023-04-24T02:50:19;99222.63;;;9.64;86.95
4576;BME280;2300;51.874;8.430;2023-04-24T02:52:45;99226.38;;;9.84;86.76
4576;BME280;2300;51.874;8.430;2023-04-24T02:55:12;99223.94;;;9.93;86.41
4576;BME280;2300;51.874;8.430;2023-04-24T02:57:38;99225.09;;;10.02;86.33
4576;BME280;2300;51.874;8.430;2023-04-24T03:00:06;99214.91;;;9.92;86.10
4576;BME280;2300;51.874;8.430;2023-04-24T03:02:34;99222.50;;;9.85;86.35
4576;BME280;2300;51.874;8.430;2023-04-24T03:05:02;99207.94;;;9.80;86.20
4576;BME280;2300;51.874;8.430;2023-04-24T03:07:28;99232.75;;;9.95;87.00
4576;BME280;2300;51.874;8.430;2023-04-24T03:09:54;99160.72;;;9.68;86.37
4576;BME280;2300;51.874;8.430;2023-04-24T03:12:23;99229.56;;;10.13;86.01
4576;BME280;2300;51.874;8.430;2023-04-24T03:14:49;99207.53;;;9.98;86.03
4576;BME280;2300;51.874;8.430;2023-04-24T03:17:16;99231.78;;;10.16;86.08
4576;BME280;2300;51.874;8.430;2023-04-24T03:19:42;99221.91;;;10.15;86.31
4576;BME280;2300;51.874;8.430;2023-04-24T03:22:10;99216.91;;;10.07;86.06
4576;BME280;2300;51.874;8.430;2023-04-24T03:24:37;99227.94;;;10.17;85.78
4576;BME280;2300;51.874;8.430;2023-04-24T03:27:03;99231.66;;;10.33;85.64
4576;BME280;2300;51.874;8.430;2023-04-24T03:29:30;99231.34;;;10.29;85.35
4576;BME280;2300;51.874;8.430;2023-04-24T03:31:56;99228.50;;;10.14;85.52
4576;BME280;2300;51.874;8.430;2023-04-24T03:34:23;99227.50;;;10.25;85.45
4576;BME280;2300;51.874;8.430;2023-04-24T03:36:49;99223.56;;;10.21;86.00
4576;BME280;2300;51.874;8.430;2023-04-24T03:39:17;99223.16;;;10.34;85.70
4576;BME280;2300;51.874;8.430;2023-04-24T03:41:43;99202.69;;;10.10;85.69
4576;BME280;2300;51.874;8.430;2023-04-24T03:44:10;99219.19;;;10.15;85.34
4576;BME280;2300;51.874;8.430;2023-04-24T03:46:36;99217.28;;;10.21;85.91
4576;BME280;2300;51.874;8.430;2023-04-24T03:49:02;99220.03;;;10.21;84.89
4576;BME280;2300;51.874;8.430;2023-04-24T03:51:29;99221.63;;;10.17;85.15
4576;BME280;2300;51.874;8.430;2023-04-24T03:53:56;99209.25;;;10.09;85.03
4576;BME280;2300;51.874;8.430;2023-04-24T03:56:24;99225.53;;;10.21;85.01
4576;BME280;2300;51.874;8.430;2023-04-24T03:58:50;99224.66;;;10.15;85.74
4576;BME280;2300;51.874;8.430;2023-04-24T04:01:17;99227.38;;;10.10;85.37
4576;BME280;2300;51.874;8.430;2023-04-24T04:03:45;99224.13;;;10.18;85.24
4576;BME280;2300;51.874;8.430;2023-04-24T04:06:12;99234.09;;;10.29;85.09
4576;BME280;2300;51.874;8.430;2023-04-24T04:08:38;99235.19;;;10.28;85.20
4576;BME280;2300;51.874;8.430;2023-04-24T04:11:05;99219.63;;;10.02;86.16
4576;BME280;2300;51.874;8.430;2023-04-24T04:13:32;99228.59;;;10.24;85.91
4576;BME280;2300;51.874;8.430;2023-04-24T04:16:04;99235.84;;;10.09;86.17
4576;BME280;2300;51.874;8.430;2023-04-24T04:18:48;99228.09;;;10.00;86.16
4576;BME280;2300;51.874;8.430;2023-04-24T04:21:14;99237.19;;;10.06;85.49
4576;BME280;2300;51.874;8.430;2023-04-24T04:23:40;99180.19;;;9.71;85.27
4576;BME280;2300;51.874;8.430;2023-04-24T04:26:07;99241.66;;;10.17;86.04
4576;BME280;2300;51.874;8.430;2023-04-24T04:28:35;99241.59;;;10.07;84.97
4576;BME280;2300;51.874;8.430;2023-04-24T04:31:03;99245.75;;;10.10;84.54
4576;BME280;2300;51.874;8.430;2023-04-24T04:33:29;99259.47;;;10.10;85.23
4576;BME280;2300;51.874;8.430;2023-04-24T04:35:58;99258.59;;;10.04;84.72
4576;BME280;2300;51.874;8.430;2023-04-24T04:38:25;99259.69;;;10.03;83.17
4576;BME280;2300;51.874;8.430;2023-04-24T04:40:55;99253.63;;;10.01;83.14
4576;BME280;2300;51.874;8.430;2023-04-24T04:43:23;99269.53;;;9.99;83.76
4576;BME280;2300;51.874;8.430;2023-04-24T04:45:51;99276.06;;;9.93;82.79
4576;BME280;2300;51.874;8.430;2023-04-24T04:48:19;99272.97;;;9.84;82.42
4576;BME280;2300;51.874;8.430;2023-04-24T04:50:46;99264.50;;;9.91;81.65
4576;BME280;2300;51.874;8.430;2023-04-24T04:53:12;99286.88;;;10.10;81.50
4576;BME280;2300;51.874;8.430;2023-04-24T04:55:39;99293.72;;;10.07;82.52
4576;BME280;2300;51.874;8.430;2023-04-24T04:58:05;99286.09;;;9.82;82.19
4576;BME280;2300;51.874;8.430;2023-04-24T05:00:32;99282.03;;;9.90;81.60
4576;BME280;2300;51.874;8.430;2023-04-24T05:03:02;99289.44;;;9.57;81.16
4576;BME280;2300;51.874;8.430;2023-04-24T05:05:28;99243.56;;;9.43;80.99
4576;BME280;2300;51.874;8.430;2023-04-24T05:07:55;99285.09;;;9.62;81.22
4576;BME280;2300;51.874;8.430;2023-04-24T05:10:21;99287.53;;;9.58;81.12
4576;BME280;2300;51.874;8.430;2023-04-24T05:12:48;99289.34;;;9.74;81.70
4576;BME280;2300;51.874;8.430;2023-04-24T05:15:14;99262.50;;;9.49;81.13
4576;BME280;2300;51.874;8.430;2023-04-24T05:17:41;99280.16;;;9.58;80.96
4576;BME280;2300;51.874;8.430;2023-04-24T05:20:09;99261.22;;;9.30;81.71
4576;BME280;2300;51.874;8.430;2023-04-24T05:22:36;99283.22;;;9.40;81.86
4576;BME280;2300;51.874;8.430;2023-04-24T05:25:03;99287.47;;;9.53;82.47
4576;BME280;2300;51.874;8.430;2023-04-24T05:27:30;99258.53;;;9.35;82.43
4576;BME280;2300;51.874;8.430;2023-04-24T05:29:57;99278.38;;;9.47;82.59
4576;BME280;2300;51.874;8.430;2023-04-24T05:32:23;99280.41;;;9.57;81.87
4576;BME280;2300;51.874;8.430;2023-04-24T05:34:50;99281.78;;;9.59;82.58
4576;BME280;2300;51.874;8.430;2023-04-24T05:37:18;99295.03;;;9.68;82.24
4576;BME280;2300;51.874;8.430;2023-04-24T05:39:45;99275.25;;;9.66;82.64
4576;BME280;2300;51.874;8.430;2023-04-24T05:42:11;99284.09;;;9.73;82.54
4576;BME280;2300;51.874;8.430;2023-04-24T05:44:38;99292.31;;;9.73;83.16
4576;BME280;2300;51.874;8.430;2023-04-24T05:47:04;99296.78;;;9.79;82.79
4576;BME280;2300;51.874;8.430;2023-04-24T05:49:31;99290.09;;;9.70;83.02
4576;BME280;2300;51.874;8.430;2023-04-24T05:51:57;99295.66;;;9.80;82.24
4576;BME280;2300;51.874;8.430;2023-04-24T05:54:25;99266.41;;;9.53;82.88
4576;BME280;2300;51.874;8.430;2023-04-24T05:56:51;99299.47;;;9.74;81.86
4576;BME280;2300;51.874;8.430;2023-04-24T05:59:19;99298.63;;;9.73;82.22
4576;BME280;2300;51.874;8.430;2023-04-24T06:01:46;99247.53;;;9.30;82.59
4576;BME280;2300;51.874;8.430;2023-04-24T06:04:12;99290.09;;;9.70;82.46
4576;BME280;2300;51.874;8.430;2023-04-24T06:06:39;99255.34;;;9.48;81.98
4576;BME280;2300;51.874;8.430;2023-04-24T06:09:06;99295.63;;;9.75;81.88
4576;BME280;2300;51.874;8.430;2023-04-24T06:11:34;99300.06;;;9.81;81.82
4576;BME280;2300;51.874;8.430;2023-04-24T06:14:00;99284.88;;;9.68;81.15
4576;BME280;2300;51.874;8.430;2023-04-24T06:16:27;99304.66;;;9.75;80.88
4576;BME280;2300;51.874;8.430;2023-04-24T06:18:53;99288.75;;;9.72;81.10
4576;BME280;2300;51.874;8.430;2023-04-24T06:21:20;99293.47;;;9.77;81.00
4576;BME280;2300;51.874;8.430;2023-04-24T06:23:46;99275.25;;;9.66;80.62
4576;BME280;2300;51.874;8.430;2023-04-24T06:26:13;99316.56;;;9.86;80.79
4576;BME280;2300;51.874;8.430;2023-04-24T06:28:41;99319.34;;;9.91;81.05
4576;BME280;2300;51.874;8.430;2023-04-24T06:31:07;99317.47;;;9.96;80.08
4576;BME280;2300;51.874;8.430;2023-04-24T06:33:34;99317.13;;;9.88;80.55
4576;BME280;2300;51.874;8.430;2023-04-24T06:36:00;99300.06;;;9.81;80.41
4576;BME280;2300;51.874;8.430;2023-04-24T06:38:26;99317.34;;;9.81;80.27
4576;BME280;2300;51.874;8.430;2023-04-24T06:40:54;99314.44;;;9.93;80.39
4576;BME280;2300;51.874;8.430;2023-04-24T06:43:21;99293.91;;;9.64;80.88
4576;BME280;2300;51.874;8.430;2023-04-24T06:45:49;99319.88;;;9.88;80.55
4576;BME280;2300;51.874;8.430;2023-04-24T06:48:15;99322.53;;;10.10;80.77
4576;BME280;2300;51.874;8.430;2023-04-24T06:50:42;99307.97;;;10.04;80.50
4576;BME280;2300;51.874;8.430;2023-04-24T06:53:08;99317.91;;;10.15;80.33
4576;BME280;2300;51.874;8.430;2023-04-24T06:55:36;99325.28;;;10.10;79.44
4576;BME280;2300;51.874;8.430;2023-04-24T06:58:02;99320.59;;;10.05;79.63
4576;BME280;2300;51.874;8.430;2023-04-24T07:00:29;99317.38;;;10.18;80.05
4576;BME280;2300;51.874;8.430;2023-04-24T07:02:57;99313.34;;;9.94;80.09
4576;BME280;2300;51.874;8.430;2023-04-24T07:05:24;99324.75;;;10.13;79.92
4576;BME280;2300;51.874;8.430;2023-04-24T07:07:50;99324.28;;;9.89;79.25
4576;BME280;2300;51.874;8.430;2023-04-24T07:10:17;99315.47;;;9.87;78.71
4576;BME280;2300;51.874;8.430;2023-04-24T07:12:43;99313.72;;;9.76;78.32
4576;BME280;2300;51.874;8.430;2023-04-24T07:15:10;99320.44;;;9.90;78.80
4576;BME280;2300;51.874;8.430;2023-04-24T07:17:37;99325.19;;;9.99;78.03
4576;BME280;2300;51.874;8.430;2023-04-24T07:20:10;99324.66;;;10.02;77.75
4576;BME280;2300;51.874;8.430;2023-04-24T07:22:37;99316.34;;;9.92;78.01
4576;BME280;2300;51.874;8.430;2023-04-24T07:25:04;99327.84;;;9.89;77.91
4576;BME280;2300;51.874;8.430;2023-04-24T07:27:31;99335.25;;;9.89;78.07
4576;BME280;2300;51.874;8.430;2023-04-24T07:29:57;99329.75;;;9.89;78.33
4576;BME280;2300;51.874;8.430;2023-04-24T07:32:23;99337.13;;;9.83;78.22
4576;BME280;2300;51.874;8.430;2023-04-24T07:34:50;99336.41;;;9.98;78.25
4576;BME280;2300;51.874;8.430;2023-04-24T07:37:18;99341.94;;;10.03;78.11
4576;BME280;2300;51.874;8.430;2023-04-24T07:39:45;99345.94;;;10.22;77.29
4576;BME280;2300;51.874;8.430;2023-04-24T07:42:12;99341.75;;;10.41;77.80
4576;BME280;2300;51.874;8.430;2023-04-24T07:44:38;99340.19;;;10.56;77.51
4576;BME280;2300;51.874;8.430;2023-04-24T07:47:05;99314.22;;;10.31;77.05
4576;BME280;2300;51.874;8.430;2023-04-24T07:49:32;99296.66;;;10.32;77.33
4576;BME280;2300;51.874;8.430;2023-04-24T07:51:59;99347.97;;;10.74;76.11
4576;BME280;2300;51.874;8.430;2023-04-24T07:54:29;99280.06;;;10.17;75.82
4576;BME280;2300;51.874;8.430;2023-04-24T07:56:55;99351.47;;;10.59;75.46
4576;BME280;2300;51.874;8.430;2023-04-24T07:59:21;99332.16;;;10.44;75.73
4576;BME280;2300;51.874;8.430;2023-04-24T08:01:48;99351.56;;;10.37;76.75
4576;BME280;2300;51.874;8.430;2023-04-24T08:04:15;99359.09;;;10.20;76.38
4576;BME280;2300;51.874;8.430;2023-04-24T08:06:43;99360.66;;;10.11;76.65
4576;BME280;2300;51.874;8.430;2023-04-24T08:09:10;99366.13;;;10.11;76.88
4576;BME280;2300;51.874;8.430;2023-04-24T08:11:37;99372.38;;;10.28;76.05
4576;BME280;2300;51.874;8.430;2023-04-24T08:14:04;99376.75;;;10.29;76.18
4576;BME280;2300;51.874;8.430;2023-04-24T08:16:32;99377.84;;;10.28;75.90
4576;BME280;2300;51.874;8.430;2023-04-24T08:18:59;99378.84;;;10.22;76.06
4576;BME280;2300;51.874;8.430;2023-04-24T08:21:25;99377.34;;;10.36;76.54
4576;BME280;2300;51.874;8.430;2023-04-24T08:23:52;99381.69;;;10.27;76.07
4576;BME280;2300;51.874;8.430;2023-04-24T08:26:18;99376.28;;;10.11;76.58
4576;BME280;2300;51.874;8.430;2023-04-24T08:28:46;99379.34;;;10.14;76.88
4576;BME280;2300;51.874;8.430;2023-04-24T08:31:13;99375.81;;;10.19;76.48
4576;BME280;2300;51.874;8.430;2023-04-24T08:33:39;99373.88;;;10.14;77.22
4576;BME280;2300;51.874;8.430;2023-04-24T08:36:06;99374.53;;;10.26;77.03
4576;BME280;2300;51.874;8.430;2023-04-24T08:38:33;99370.50;;;10.07;76.81
4576;BME280;2300;51.874;8.430;2023-04-24T08:41:01;99374.94;;;10.13;76.99
4576;BME280;2300;51.874;8.430;2023-04-24T08:43:27;99361.28;;;10.18;77.05
4576;BME280;2300;51.874;8.430;2023-04-24T08:45:56;99366.66;;;10.35;77.17
4576;BME280;2300;51.874;8.430;2023-04-24T08:48:25;99370.78;;;10.37;77.31
4576;BME280;2300;51.874;8.430;2023-04-24T08:50:51;99377.75;;;10.50;76.78
4576;BME280;2300;51.874;8.430;2023-04-24T08:53:18;99384.09;;;10.56;76.51
4576;BME280;2300;51.874;8.430;2023-04-24T08:55:47;99366.88;;;10.28;76.18
4576;BME280;2300;51.874;8.430;2023-04-24T08:58:15;99326.25;;;10.25;76.53
4576;BME280;2300;51.874;8.430;2023-04-24T09:00:43;99377.25;;;10.58;77.08
4576;BME280;2300;51.874;8.430;2023-04-24T09:03:13;99379.34;;;10.41;76.65
4576;BME280;2300;51.874;8.430;2023-04-24T09:05:42;99386.28;;;10.54;77.14
4576;BME280;2300;51.874;8.430;2023-04-24T09:08:11;99360.25;;;10.24;77.79
4576;BME280;2300;51.874;8.430;2023-04-24T09:10:39;99394.44;;;10.43;77.76
4576;BME280;2300;51.874;8.430;2023-04-24T09:13:06;99375.34;;;10.27;78.15
4576;BME280;2300;51.874;8.430;2023-04-24T09:15:34;99377.84;;;10.28;77.27
4576;BME280;2300;51.874;8.430;2023-04-24T09:18:01;99363.69;;;10.41;77.63
4576;BME280;2300;51.874;8.430;2023-04-24T09:20:29;99379.28;;;10.78;77.26
4576;BME280;2300;51.874;8.430;2023-04-24T09:22:56;99376.22;;;11.16;75.57
4576;BME280;2300;51.874;8.430;2023-04-24T09:25:25;99371.75;;;11.00;75.91
4576;BME280;2300;51.874;8.430;2023-04-24T09:28:00;99381.88;;;10.95;75.27
4576;BME280;2300;51.874;8.430;2023-04-24T09:30:27;99376.97;;;10.55;75.59
4576;BME280;2300;51.874;8.430;2023-04-24T09:33:12;99378.53;;;10.46;75.83
4576;BME280;2300;51.874;8.430;2023-04-24T09:35:41;99385.44;;;10.53;76.23
4576;BME280;2300;51.874;8.430;2023-04-24T09:38:09;99387.78;;;10.34;76.10
4576;BME280;2300;51.874;8.430;2023-04-24T09:40:35;99386.63;;;10.25;76.49
4576;BME280;2300;51.874;8.430;2023-04-24T09:43:02;99382.28;;;10.34;76.39
4576;BME280;2300;51.874;8.430;2023-04-24T09:45:35;99407.16;;;10.55;76.26
4576;BME280;2300;51.874;8.430;2023-04-24T09:48:01;99389.59;;;10.24;75.66
4576;BME280;2300;51.874;8.430;2023-04-24T09:50:30;99400.47;;;10.40;75.68
4576;BME280;2300;51.874;8.430;2023-04-24T09:52:59;99393.53;;;10.06;75.93
4576;BME280;2300;51.874;8.430;2023-04-24T09:55:27;99388.53;;;9.98;76.17
4576;BME280;2300;51.874;8.430;2023-04-24T09:57:55;99397.31;;;10.00;76.07
4576;BME280;2300;51.874;8.430;2023-04-24T10:00:23;99402.06;;;9.83;76.60
4576;BME280;2300;51.874;8.430;2023-04-24T10:02:51;99409.19;;;9.57;77.83
4576;BME280;2300;51.874;8.430;2023-04-24T10:05:18;99407.59;;;9.39;79.49
4576;BME280;2300;51.874;8.430;2023-04-24T10:07:45;99411.53;;;9.48;80.38
4576;BME280;2300;51.874;8.430;2023-04-24T10:10:13;99419.44;;;9.67;80.62
4576;BME280;2300;51.874;8.430;2023-04-24T10:12:40;99424.28;;;9.59;80.59
4576;BME280;2300;51.874;8.430;2023-04-24T10:15:08;99407.53;;;9.56;80.52
4576;BME280;2300;51.874;8.430;2023-04-24T10:17:37;99423.97;;;9.56;80.36
4576;BME280;2300;51.874;8.430;2023-04-24T10:20:05;99423.66;;;9.74;81.63
4576;BME280;2300;51.874;8.430;2023-04-24T10:22:33;99435.41;;;9.75;81.49
4576;BME280;2300;51.874;8.430;2023-04-24T10:24:59;99433.19;;;9.72;81.21
4576;BME280;2300;51.874;8.430;2023-04-24T10:27:28;99440.84;;;9.70;82.03
4576;BME280;2300;51.874;8.430;2023-04-24T10:29:56;99438.94;;;9.48;81.48
4576;BME280;2300;51.874;8.430;2023-04-24T10:32:23;99431.50;;;9.44;82.30
4576;BME280;2300;51.874;8.430;2023-04-24T10:34:49;99442.53;;;9.27;83.15
4576;BME280;2300;51.874;8.430;2023-04-24T10:37:16;99456.34;;;9.15;83.74
4576;BME280;2300;51.874;8.430;2023-04-24T10:39:42;99448.94;;;9.16;84.20
4576;BME280;2300;51.874;8.430;2023-04-24T10:42:16;99442.59;;;8.94;84.94
4576;BME280;2300;51.874;8.430;2023-04-24T10:44:47;99478.25;;;8.99;85.41
4576;BME280;2300;51.874;8.430;2023-04-24T10:47:14;99465.03;;;9.12;85.74
4576;BME280;2300;51.874;8.430;2023-04-24T10:49:40;99461.16;;;8.92;86.27
4576;BME280;2300;51.874;8.430;2023-04-24T10:52:08;99465.41;;;8.99;86.91
4576;BME280;2300;51.874;8.430;2023-04-24T10:54:36;99471.38;;;9.35;87.31
4576;BME280;2300;51.874;8.430;2023-04-24T10:57:25;99473.41;;;9.44;88.05
4576;BME280;2300;51.874;8.430;2023-04-24T11:02:48;99486.00;;;9.24;88.44
4576;BME280;2300;51.874;8.430;2023-04-24T11:05:19;99483.69;;;9.32;90.55
4576;BME280;2300;51.874;8.430;2023-04-24T11:08:10;99493.84;;;9.15;90.90
4576;BME280;2300;51.874;8.430;2023-04-24T11:10:39;99507.38;;;9.22;91.33
4576;BME280;2300;51.874;8.430;2023-04-24T11:13:06;99505.47;;;9.22;92.72
4576;BME280;2300;51.874;8.430;2023-04-24T11:15:33;99506.38;;;9.49;92.03
4576;BME280;2300;51.874;8.430;2023-04-24T11:18:00;99516.03;;;9.35;92.03
4576;BME280;2300;51.874;8.430;2023-04-24T11:20:27;99514.75;;;9.21;94.25
4576;BME280;2300;51.874;8.430;2023-04-24T11:22:54;99509.97;;;9.11;95.06
4576;BME280;2300;51.874;8.430;2023-04-24T11:25:23;99518.03;;;9.23;95.49
4576;BME280;2300;51.874;8.430;2023-04-24T11:27:50;99511.25;;;9.26;95.27
4576;BME280;2300;51.874;8.430;2023-04-24T11:30:17;99523.34;;;9.30;95.60
4576;BME280;2300;51.874;8.430;2023-04-24T11:32:48;99528.84;;;9.30;96.12
4576;BME280;2300;51.874;8.430;2023-04-24T11:35:17;99532.03;;;9.43;96.20
4576;BME280;2300;51.874;8.430;2023-04-24T11:37:46;99541.63;;;9.24;97.09
4576;BME280;2300;51.874;8.430;2023-04-24T11:40:15;99542.59;;;9.35;96.00
4576;BME280;2300;51.874;8.430;2023-04-24T11:42:45;99550.44;;;9.26;96.91
4576;BME280;2300;51.874;8.430;2023-04-24T11:45:13;99554.56;;;9.29;96.99
4576;BME280;2300;51.874;8.430;2023-04-24T11:47:41;99555.09;;;9.09;95.84
4576;BME280;2300;51.874;8.430;2023-04-24T11:50:10;99561.47;;;8.98;95.71
4576;BME280;2300;51.874;8.430;2023-04-24T11:52:39;99578.97;;;8.97;96.50
4576;BME280;2300;51.874;8.430;2023-04-24T11:55:07;99577.31;;;8.79;98.22
4576;BME280;2300;51.874;8.430;2023-04-24T11:57:34;99584.53;;;8.57;97.09
4576;BME280;2300;51.874;8.430;2023-04-24T12:00:02;99610.69;;;8.36;98.75
4576;BME280;2300;51.874;8.430;2023-04-24T12:02:30;99605.34;;;8.29;98.80
4576;BME280;2300;51.874;8.430;2023-04-24T12:04:56;99619.50;;;8.38;98.33
4576;BME280;2300;51.874;8.430;2023-04-24T12:07:24;99625.91;;;8.44;99.85
4576;BME280;2300;51.874;8.430;2023-04-24T12:09:57;99634.56;;;8.41;100.00
4576;BME280;2300;51.874;8.430;2023-04-24T12:12:27;99640.97;;;8.46;100.00
4576;BME280;2300;51.874;8.430;2023-04-24T12:15:06;99634.56;;;8.41;99.49
4576;BME280;2300;51.874;8.430;2023-04-24T12:17:41;99653.41;;;8.65;98.35
4576;BME280;2300;51.874;8.430;2023-04-24T12:20:08;99656.75;;;8.67;99.51
4576;BME280;2300;51.874;8.430;2023-04-24T12:22:45;99664.22;;;8.60;96.14
4576;BME280;2300;51.874;8.430;2023-04-24T12:25:15;99667.69;;;8.56;97.18
4576;BME280;2300;51.874;8.430;2023-04-24T12:27:42;99671.03;;;8.69;96.05
4576;BME280;2300;51.874;8.430;2023-04-24T12:30:12;99677.66;;;8.73;96.93
4576;BME280;2300;51.874;8.430;2023-04-24T12:32:43;99686.16;;;8.89;97.76
4576;BME280;2300;51.874;8.430;2023-04-24T12:35:09;99686.94;;;9.01;97.30
4576;BME280;2300;51.874;8.430;2023-04-24T12:37:36;99684.13;;;8.96;97.40
4576;BME280;2300;51.874;8.430;2023-04-24T12:40:06;99671.78;;;8.82;97.96
4576;BME280;2300;51.874;8.430;2023-04-24T12:42:35;99693.78;;;8.87;98.68
4576;BME280;2300;51.874;8.430;2023-04-24T12:45:03;99695.97;;;8.85;99.21
4576;BME280;2300;51.874;8.430;2023-04-24T12:47:31;99689.66;;;8.84;99.96
4576;BME280;2300;51.874;8.430;2023-04-24T12:49:59;99677.22;;;8.65;100.00
4576;BME280;2300;51.874;8.430;2023-04-24T12:52:27;99700.84;;;8.83;100.00
4576;BME280;2300;51.874;8.430;2023-04-24T12:54:55;99712.66;;;8.71;100.00
4576;BME280;2300;51.874;8.430;2023-04-24T12:57:22;99711.03;;;8.47;100.00
4576;BME280;2300;51.874;8.430;2023-04-24T12:59:53;99716.28;;;8.49;100.00
4576;BME280;2300;51.874;8.430;2023-04-24T13:02:20;99710.19;;;8.70;100.00
4576;BME280;2300;51.874;8.430;2023-04-24T13:04:48;99718.28;;;8.53;100.00
4576;BME280;2300;51.874;8.430;2023-04-24T13:07:14;99732.94;;;8.47;100.00
4576;BME280;2300;51.874;8.430;2023-04-24T13:09:42;99726.97;;;8.50;100.00
4576;BME280;2300;51.874;8.430;2023-04-24T13:12:09;99722.91;;;8.64;100.00
4576;BME280;2300;51.874;8.430;2023-04-24T13:14:36;99726.28;;;8.43;100.00
4576;BME280;2300;51.874;8.430;2023-04-24T13:17:04;99726.38;;;8.60;100.00
4576;BME280;2300;51.874;8.430;2023-04-24T13:19:35;99729.78;;;8.79;100.00
4576;BME280;2300;51.874;8.430;2023-04-24T13:22:03;99742.41;;;8.80;100.00
4576;BME280;2300;51.874;8.430;2023-04-24T13:24:29;99738.84;;;8.67;100.00
4576;BME280;2300;51.874;8.430;2023-04-24T13:26:56;99742.75;;;8.71;100.00
4576;BME280;2300;51.874;8.430;2023-04-24T13:29:23;99736.53;;;8.88;100.00
4576;BME280;2300;51.874;8.430;2023-04-24T13:31:50;99742.66;;;9.06;100.00